sensor_id;sensor_type;location;lat;lon;timestamp;P1;durP1;ratioP1;P2;durP2;ratioP2
635;SDS011;302;50.206;8.196;2022-07-04T00:02:08;2.05;;;1.90;;
635;SDS011;302;50.206;8.196;2022-07-04T00:04:34;1.53;;;1.37;;
635;SDS011;302;50.206;8.196;2022-07-04T00:06:59;1.93;;;1.83;;
635;SDS011;302;50.206;8.196;2022-07-04T00:09:24;1.93;;;1.80;;
635;SDS011;302;50.206;8.196;2022-07-04T00:11:49;2.30;;;1.60;;
635;SDS011;302;50.206;8.196;2022-07-04T00:14:14;2.27;;;1.80;;
635;SDS011;302;50.206;8.196;2022-07-04T00:16:39;1.67;;;1.57;;
635;SDS011;302;50.206;8.196;2022-07-04T00:19:05;1.87;;;1.60;;
635;SDS011;302;50.206;8.196;2022-07-04T00:21:30;1.90;;;1.80;;
635;SDS011;302;50.206;8.196;2022-07-04T00:23:55;3.10;;;1.67;;
635;SDS011;302;50.206;8.196;2022-07-04T00:26:20;2.03;;;1.83;;
635;SDS011;302;50.206;8.196;2022-07-04T00:28:45;5.20;;;2.00;;
635;SDS011;302;50.206;8.196;2022-07-04T00:31:11;2.30;;;2.00;;
635;SDS011;302;50.206;8.196;2022-07-04T00:33:36;2.63;;;2.10;;
635;SDS011;302;50.206;8.196;2022-07-04T00:36:01;1.90;;;1.60;;
635;SDS011;302;50.206;8.196;2022-07-04T00:38:26;2.27;;;1.80;;
635;SDS011;302;50.206;8.196;2022-07-04T00:40:51;5.83;;;2.37;;
635;SDS011;302;50.206;8.196;2022-07-04T00:43:24;1.73;;;1.63;;
635;SDS011;302;50.206;8.196;2022-07-04T00:45:49;2.10;;;2.00;;
635;SDS011;302;50.206;8.196;2022-07-04T00:48:14;2.03;;;1.83;;
635;SDS011;302;50.206;8.196;2022-07-04T00:50:41;3.03;;;2.53;;
635;SDS011;302;50.206;8.196;2022-07-04T00:53:06;1.63;;;1.53;;
635;SDS011;302;50.206;8.196;2022-07-04T00:55:31;2.63;;;2.00;;
635;SDS011;302;50.206;8.196;2022-07-04T00:57:57;2.00;;;1.80;;
635;SDS011;302;50.206;8.196;2022-07-04T01:00:22;2.10;;;1.90;;
635;SDS011;302;50.206;8.196;2022-07-04T01:02:48;2.03;;;1.93;;
635;SDS011;302;50.206;8.196;2022-07-04T01:05:13;2.10;;;2.00;;
635;SDS011;302;50.206;8.196;2022-07-04T01:07:39;2.30;;;2.10;;
635;SDS011;302;50.206;8.196;2022-07-04T01:10:04;3.00;;;2.70;;
635;SDS011;302;50.206;8.196;2022-07-04T01:12:29;2.90;;;2.07;;
635;SDS011;302;50.206;8.196;2022-07-04T01:14:55;2.37;;;2.17;;
635;SDS011;302;50.206;8.196;2022-07-04T01:17:20;2.80;;;2.60;;
635;SDS011;302;50.206;8.196;2022-07-04T01:19:45;2.43;;;2.00;;
635;SDS011;302;50.206;8.196;2022-07-04T01:22:10;2.60;;;2.37;;
635;SDS011;302;50.206;8.196;2022-07-04T01:24:36;2.40;;;1.90;;
635;SDS011;302;50.206;8.196;2022-07-04T01:27:01;2.00;;;1.80;;
635;SDS011;302;50.206;8.196;2022-07-04T01:29:26;2.43;;;2.27;;
635;SDS011;302;50.206;8.196;2022-07-04T01:31:52;1.80;;;1.70;;
635;SDS011;302;50.206;8.196;2022-07-04T01:34:18;2.47;;;2.28;;
635;SDS011;302;50.206;8.196;2022-07-04T01:36:43;4.07;;;2.40;;
635;SDS011;302;50.206;8.196;2022-07-04T01:39:08;2.63;;;2.43;;
635;SDS011;302;50.206;8.196;2022-07-04T01:41:34;2.67;;;2.47;;
635;SDS011;302;50.206;8.196;2022-07-04T01:44:00;5.63;;;2.70;;
635;SDS011;302;50.206;8.196;2022-07-04T01:46:25;2.60;;;2.47;;
635;SDS011;302;50.206;8.196;2022-07-04T01:48:50;2.63;;;2.43;;
635;SDS011;302;50.206;8.196;2022-07-04T01:51:15;2.85;;;2.65;;
635;SDS011;302;50.206;8.196;2022-07-04T01:53:40;2.73;;;2.53;;
635;SDS011;302;50.206;8.196;2022-07-04T01:56:05;2.50;;;2.30;;
635;SDS011;302;50.206;8.196;2022-07-04T01:58:31;3.17;;;2.97;;
635;SDS011;302;50.206;8.196;2022-07-04T02:00:56;2.87;;;2.67;;
635;SDS011;302;50.206;8.196;2022-07-04T02:03:39;2.78;;;2.58;;
635;SDS011;302;50.206;8.196;2022-07-04T02:06:05;3.60;;;2.28;;
635;SDS011;302;50.206;8.196;2022-07-04T02:08:30;2.78;;;2.45;;
635;SDS011;302;50.206;8.196;2022-07-04T02:11:15;2.38;;;2.20;;
635;SDS011;302;50.206;8.196;2022-07-04T02:13:40;2.60;;;2.40;;
635;SDS011;302;50.206;8.196;2022-07-04T02:16:05;3.13;;;2.83;;
635;SDS011;302;50.206;8.196;2022-07-04T02:18:30;3.50;;;2.28;;
635;SDS011;302;50.206;8.196;2022-07-04T02:20:55;2.77;;;2.57;;
635;SDS011;302;50.206;8.196;2022-07-04T02:23:21;3.67;;;2.55;;
635;SDS011;302;50.206;8.196;2022-07-04T02:25:46;3.00;;;2.70;;
635;SDS011;302;50.206;8.196;2022-07-04T02:28:11;2.75;;;2.55;;
635;SDS011;302;50.206;8.196;2022-07-04T02:30:36;3.40;;;2.73;;
635;SDS011;302;50.206;8.196;2022-07-04T02:33:01;3.80;;;2.83;;
635;SDS011;302;50.206;8.196;2022-07-04T02:35:26;2.97;;;2.77;;
635;SDS011;302;50.206;8.196;2022-07-04T02:37:52;2.65;;;2.45;;
635;SDS011;302;50.206;8.196;2022-07-04T02:40:17;3.10;;;2.80;;
635;SDS011;302;50.206;8.196;2022-07-04T02:42:43;2.80;;;2.60;;
635;SDS011;302;50.206;8.196;2022-07-04T02:45:08;2.80;;;2.60;;
635;SDS011;302;50.206;8.196;2022-07-04T02:47:33;4.40;;;2.87;;
635;SDS011;302;50.206;8.196;2022-07-04T02:49:59;2.70;;;2.50;;
635;SDS011;302;50.206;8.196;2022-07-04T02:52:27;2.92;;;2.63;;
635;SDS011;302;50.206;8.196;2022-07-04T02:54:52;2.70;;;2.50;;
635;SDS011;302;50.206;8.196;2022-07-04T02:57:17;3.17;;;2.60;;
635;SDS011;302;50.206;8.196;2022-07-04T02:59:43;3.67;;;3.37;;
635;SDS011;302;50.206;8.196;2022-07-04T03:02:08;2.43;;;2.33;;
635;SDS011;302;50.206;8.196;2022-07-04T03:04:33;2.93;;;2.73;;
635;SDS011;302;50.206;8.196;2022-07-04T03:06:58;3.33;;;3.07;;
635;SDS011;302;50.206;8.196;2022-07-04T03:09:24;3.30;;;3.10;;
635;SDS011;302;50.206;8.196;2022-07-04T03:11:52;3.30;;;3.00;;
635;SDS011;302;50.206;8.196;2022-07-04T03:14:17;3.10;;;2.90;;
635;SDS011;302;50.206;8.196;2022-07-04T03:16:42;3.35;;;3.05;;
635;SDS011;302;50.206;8.196;2022-07-04T03:19:07;2.93;;;2.73;;
635;SDS011;302;50.206;8.196;2022-07-04T03:21:32;3.93;;;2.80;;
635;SDS011;302;50.206;8.196;2022-07-04T03:23:58;3.20;;;2.90;;
635;SDS011;302;50.206;8.196;2022-07-04T03:26:24;3.07;;;2.87;;
635;SDS011;302;50.206;8.196;2022-07-04T03:28:50;2.95;;;2.72;;
635;SDS011;302;50.206;8.196;2022-07-04T03:31:15;3.10;;;2.80;;
635;SDS011;302;50.206;8.196;2022-07-04T03:33:40;3.30;;;3.00;;
635;SDS011;302;50.206;8.196;2022-07-04T03:36:05;2.85;;;2.65;;
635;SDS011;302;50.206;8.196;2022-07-04T03:38:30;3.53;;;3.17;;
635;SDS011;302;50.206;8.196;2022-07-04T03:40:56;3.15;;;2.90;;
635;SDS011;302;50.206;8.196;2022-07-04T03:43:21;3.33;;;3.13;;
635;SDS011;302;50.206;8.196;2022-07-04T03:45:46;3.20;;;3.00;;
635;SDS011;302;50.206;8.196;2022-07-04T03:48:11;3.90;;;3.10;;
635;SDS011;302;50.206;8.196;2022-07-04T03:50:36;3.30;;;3.07;;
635;SDS011;302;50.206;8.196;2022-07-04T03:53:01;3.25;;;2.95;;
635;SDS011;302;50.206;8.196;2022-07-04T03:55:26;3.80;;;3.50;;
635;SDS011;302;50.206;8.196;2022-07-04T03:57:52;3.27;;;3.00;;
635;SDS011;302;50.206;8.196;2022-07-04T04:00:17;4.80;;;3.10;;
635;SDS011;302;50.206;8.196;2022-07-04T04:02:42;3.50;;;3.20;;
635;SDS011;302;50.206;8.196;2022-07-04T04:05:07;3.20;;;3.00;;
635;SDS011;302;50.206;8.196;2022-07-04T04:07:52;4.68;;;3.72;;
635;SDS011;302;50.206;8.196;2022-07-04T04:10:17;3.45;;;3.20;;
635;SDS011;302;50.206;8.196;2022-07-04T04:12:43;4.40;;;3.37;;
635;SDS011;302;50.206;8.196;2022-07-04T04:15:08;3.67;;;3.37;;
635;SDS011;302;50.206;8.196;2022-07-04T04:17:33;4.60;;;3.10;;
635;SDS011;302;50.206;8.196;2022-07-04T04:19:59;3.50;;;3.20;;
635;SDS011;302;50.206;8.196;2022-07-04T04:22:24;3.28;;;3.03;;
635;SDS011;302;50.206;8.196;2022-07-04T04:24:49;3.80;;;3.50;;
635;SDS011;302;50.206;8.196;2022-07-04T04:27:14;3.20;;;3.00;;
635;SDS011;302;50.206;8.196;2022-07-04T04:29:39;4.13;;;3.87;;
635;SDS011;302;50.206;8.196;2022-07-04T04:32:05;3.43;;;3.07;;
635;SDS011;302;50.206;8.196;2022-07-04T04:34:30;3.20;;;2.90;;
635;SDS011;302;50.206;8.196;2022-07-04T04:36:55;3.63;;;3.33;;
635;SDS011;302;50.206;8.196;2022-07-04T04:39:20;4.33;;;3.53;;
635;SDS011;302;50.206;8.196;2022-07-04T04:41:45;4.32;;;3.53;;
635;SDS011;302;50.206;8.196;2022-07-04T04:44:11;4.47;;;3.13;;
635;SDS011;302;50.206;8.196;2022-07-04T04:46:36;3.70;;;3.40;;
635;SDS011;302;50.206;8.196;2022-07-04T04:49:01;3.37;;;3.17;;
635;SDS011;302;50.206;8.196;2022-07-04T04:51:26;3.90;;;3.60;;
635;SDS011;302;50.206;8.196;2022-07-04T04:53:51;3.63;;;3.37;;
635;SDS011;302;50.206;8.196;2022-07-04T04:56:17;3.90;;;3.60;;
635;SDS011;302;50.206;8.196;2022-07-04T04:58:42;3.90;;;3.60;;
635;SDS011;302;50.206;8.196;2022-07-04T05:01:07;3.93;;;3.63;;
635;SDS011;302;50.206;8.196;2022-07-04T05:03:33;3.03;;;2.80;;
635;SDS011;302;50.206;8.196;2022-07-04T05:05:59;3.55;;;3.35;;
635;SDS011;302;50.206;8.196;2022-07-04T05:08:25;4.22;;;3.92;;
635;SDS011;302;50.206;8.196;2022-07-04T05:10:50;3.70;;;3.40;;
635;SDS011;302;50.206;8.196;2022-07-04T05:13:15;3.30;;;3.10;;
635;SDS011;302;50.206;8.196;2022-07-04T05:15:41;2.77;;;2.67;;
635;SDS011;302;50.206;8.196;2022-07-04T05:18:06;4.40;;;4.07;;
635;SDS011;302;50.206;8.196;2022-07-04T05:20:31;4.10;;;3.80;;
635;SDS011;302;50.206;8.196;2022-07-04T05:22:57;4.05;;;3.75;;
635;SDS011;302;50.206;8.196;2022-07-04T05:25:22;4.50;;;4.20;;
635;SDS011;302;50.206;8.196;2022-07-04T05:27:48;4.40;;;4.00;;
635;SDS011;302;50.206;8.196;2022-07-04T05:30:13;4.07;;;3.73;;
635;SDS011;302;50.206;8.196;2022-07-04T05:32:38;3.87;;;3.67;;
635;SDS011;302;50.206;8.196;2022-07-04T05:35:04;4.40;;;4.03;;
635;SDS011;302;50.206;8.196;2022-07-04T05:37:29;4.80;;;4.50;;
635;SDS011;302;50.206;8.196;2022-07-04T05:39:54;4.23;;;3.00;;
635;SDS011;302;50.206;8.196;2022-07-04T05:42:20;3.93;;;3.43;;
635;SDS011;302;50.206;8.196;2022-07-04T05:44:45;3.80;;;3.60;;
635;SDS011;302;50.206;8.196;2022-07-04T05:47:10;3.50;;;3.23;;
635;SDS011;302;50.206;8.196;2022-07-04T05:49:35;3.80;;;3.50;;
635;SDS011;302;50.206;8.196;2022-07-04T05:52:01;3.63;;;3.37;;
635;SDS011;302;50.206;8.196;2022-07-04T05:54:27;4.13;;;2.87;;
635;SDS011;302;50.206;8.196;2022-07-04T05:56:52;3.30;;;3.00;;
635;SDS011;302;50.206;8.196;2022-07-04T05:59:17;3.53;;;3.30;;
635;SDS011;302;50.206;8.196;2022-07-04T06:01:42;3.30;;;3.07;;
635;SDS011;302;50.206;8.196;2022-07-04T06:04:07;3.70;;;3.40;;
635;SDS011;302;50.206;8.196;2022-07-04T06:06:33;3.50;;;3.20;;
635;SDS011;302;50.206;8.196;2022-07-04T06:08:58;4.23;;;3.93;;
635;SDS011;302;50.206;8.196;2022-07-04T06:11:23;4.93;;;2.93;;
635;SDS011;302;50.206;8.196;2022-07-04T06:13:49;3.60;;;3.30;;
635;SDS011;302;50.206;8.196;2022-07-04T06:16:14;3.53;;;3.23;;
635;SDS011;302;50.206;8.196;2022-07-04T06:18:40;2.60;;;2.50;;
635;SDS011;302;50.206;8.196;2022-07-04T06:21:05;3.13;;;2.93;;
635;SDS011;302;50.206;8.196;2022-07-04T06:23:31;3.20;;;2.80;;
635;SDS011;302;50.206;8.196;2022-07-04T06:25:56;4.63;;;3.13;;
635;SDS011;302;50.206;8.196;2022-07-04T06:28:21;3.07;;;2.80;;
635;SDS011;302;50.206;8.196;2022-07-04T06:30:46;3.00;;;2.63;;
635;SDS011;302;50.206;8.196;2022-07-04T06:33:11;2.27;;;2.07;;
635;SDS011;302;50.206;8.196;2022-07-04T06:35:37;2.33;;;2.13;;
635;SDS011;302;50.206;8.196;2022-07-04T06:38:13;2.70;;;2.50;;
635;SDS011;302;50.206;8.196;2022-07-04T06:40:39;2.15;;;1.95;;
635;SDS011;302;50.206;8.196;2022-07-04T06:43:05;3.90;;;2.50;;
635;SDS011;302;50.206;8.196;2022-07-04T06:45:30;3.20;;;2.40;;
635;SDS011;302;50.206;8.196;2022-07-04T06:47:57;2.30;;;2.10;;
635;SDS011;302;50.206;8.196;2022-07-04T06:50:22;3.75;;;2.03;;
635;SDS011;302;50.206;8.196;2022-07-04T06:52:47;2.30;;;2.10;;
635;SDS011;302;50.206;8.196;2022-07-04T06:55:12;3.00;;;2.70;;
635;SDS011;302;50.206;8.196;2022-07-04T06:57:37;2.23;;;2.03;;
635;SDS011;302;50.206;8.196;2022-07-04T07:00:03;2.50;;;2.30;;
635;SDS011;302;50.206;8.196;2022-07-04T07:02:29;2.85;;;2.10;;
635;SDS011;302;50.206;8.196;2022-07-04T07:04:55;2.90;;;2.53;;
635;SDS011;302;50.206;8.196;2022-07-04T07:07:20;2.35;;;1.90;;
635;SDS011;302;50.206;8.196;2022-07-04T07:09:45;2.37;;;1.90;;
635;SDS011;302;50.206;8.196;2022-07-04T07:12:11;2.13;;;1.73;;
635;SDS011;302;50.206;8.196;2022-07-04T07:14:36;2.47;;;1.70;;
635;SDS011;302;50.206;8.196;2022-07-04T07:17:01;1.90;;;1.63;;
635;SDS011;302;50.206;8.196;2022-07-04T07:19:27;1.58;;;1.48;;
635;SDS011;302;50.206;8.196;2022-07-04T07:21:53;1.73;;;1.63;;
635;SDS011;302;50.206;8.196;2022-07-04T07:24:18;2.23;;;1.53;;
635;SDS011;302;50.206;8.196;2022-07-04T07:26:43;1.90;;;1.80;;
635;SDS011;302;50.206;8.196;2022-07-04T07:29:08;1.97;;;1.60;;
635;SDS011;302;50.206;8.196;2022-07-04T07:31:33;1.57;;;1.30;;
635;SDS011;302;50.206;8.196;2022-07-04T07:33:58;2.10;;;1.90;;
635;SDS011;302;50.206;8.196;2022-07-04T07:36:24;1.85;;;1.60;;
635;SDS011;302;50.206;8.196;2022-07-04T07:38:49;2.40;;;1.93;;
635;SDS011;302;50.206;8.196;2022-07-04T07:41:14;4.33;;;1.63;;
635;SDS011;302;50.206;8.196;2022-07-04T07:43:40;2.70;;;1.67;;
635;SDS011;302;50.206;8.196;2022-07-04T07:46:06;1.70;;;1.60;;
635;SDS011;302;50.206;8.196;2022-07-04T07:48:31;1.60;;;1.50;;
635;SDS011;302;50.206;8.196;2022-07-04T07:50:56;1.70;;;1.27;;
635;SDS011;302;50.206;8.196;2022-07-04T07:53:22;1.73;;;1.63;;
635;SDS011;302;50.206;8.196;2022-07-04T07:55:47;2.13;;;1.43;;
635;SDS011;302;50.206;8.196;2022-07-04T07:58:12;1.90;;;1.60;;
635;SDS011;302;50.206;8.196;2022-07-04T08:00:37;3.63;;;1.50;;
635;SDS011;302;50.206;8.196;2022-07-04T08:03:02;2.17;;;1.53;;
635;SDS011;302;50.206;8.196;2022-07-04T08:05:46;2.30;;;1.50;;
635;SDS011;302;50.206;8.196;2022-07-04T08:08:11;1.60;;;1.50;;
635;SDS011;302;50.206;8.196;2022-07-04T08:10:37;3.53;;;1.90;;
635;SDS011;302;50.206;8.196;2022-07-04T08:13:03;1.60;;;1.50;;
635;SDS011;302;50.206;8.196;2022-07-04T08:15:28;2.80;;;1.80;;
635;SDS011;302;50.206;8.196;2022-07-04T08:17:53;2.33;;;1.40;;
635;SDS011;302;50.206;8.196;2022-07-04T08:20:18;2.10;;;1.43;;
635;SDS011;302;50.206;8.196;2022-07-04T08:22:43;1.60;;;1.30;;
635;SDS011;302;50.206;8.196;2022-07-04T08:25:08;4.23;;;1.63;;
635;SDS011;302;50.206;8.196;2022-07-04T08:27:34;1.10;;;1.00;;
635;SDS011;302;50.206;8.196;2022-07-04T08:29:59;2.00;;;1.17;;
635;SDS011;302;50.206;8.196;2022-07-04T08:32:25;1.50;;;0.80;;
635;SDS011;302;50.206;8.196;2022-07-04T08:34:50;1.57;;;1.00;;
635;SDS011;302;50.206;8.196;2022-07-04T08:37:15;1.20;;;0.80;;
635;SDS011;302;50.206;8.196;2022-07-04T08:39:40;2.37;;;1.00;;
635;SDS011;302;50.206;8.196;2022-07-04T08:42:06;1.10;;;0.80;;
635;SDS011;302;50.206;8.196;2022-07-04T08:44:35;1.13;;;0.70;;
635;SDS011;302;50.206;8.196;2022-07-04T08:47:03;2.20;;;1.00;;
635;SDS011;302;50.206;8.196;2022-07-04T08:49:29;1.80;;;1.00;;
635;SDS011;302;50.206;8.196;2022-07-04T08:51:59;1.85;;;1.25;;
635;SDS011;302;50.206;8.196;2022-07-04T08:54:25;1.48;;;1.10;;
635;SDS011;302;50.206;8.196;2022-07-04T08:57:09;1.10;;;1.00;;
635;SDS011;302;50.206;8.196;2022-07-04T08:59:53;1.40;;;1.30;;
635;SDS011;302;50.206;8.196;2022-07-04T09:02:20;2.30;;;1.35;;
635;SDS011;302;50.206;8.196;2022-07-04T09:04:46;1.47;;;1.20;;
635;SDS011;302;50.206;8.196;2022-07-04T09:07:11;2.80;;;1.67;;
635;SDS011;302;50.206;8.196;2022-07-04T09:09:37;1.53;;;1.10;;
635;SDS011;302;50.206;8.196;2022-07-04T09:12:02;1.60;;;1.20;;
635;SDS011;302;50.206;8.196;2022-07-04T09:14:27;1.50;;;1.30;;
635;SDS011;302;50.206;8.196;2022-07-04T09:16:52;2.83;;;1.50;;
635;SDS011;302;50.206;8.196;2022-07-04T09:19:19;3.15;;;1.30;;
635;SDS011;302;50.206;8.196;2022-07-04T09:21:46;1.73;;;1.30;;
635;SDS011;302;50.206;8.196;2022-07-04T09:24:12;3.75;;;1.38;;
635;SDS011;302;50.206;8.196;2022-07-04T09:26:40;2.23;;;1.20;;
635;SDS011;302;50.206;8.196;2022-07-04T09:29:05;1.70;;;1.02;;
635;SDS011;302;50.206;8.196;2022-07-04T09:31:30;1.23;;;1.10;;
635;SDS011;302;50.206;8.196;2022-07-04T09:34:00;3.10;;;1.10;;
635;SDS011;302;50.206;8.196;2022-07-04T09:36:27;1.40;;;1.10;;
635;SDS011;302;50.206;8.196;2022-07-04T09:41:30;1.77;;;1.08;;
635;SDS011;302;50.206;8.196;2022-07-04T09:44:04;1.80;;;1.35;;
635;SDS011;302;50.206;8.196;2022-07-04T09:46:30;1.42;;;1.00;;
635;SDS011;302;50.206;8.196;2022-07-04T09:48:55;1.90;;;1.40;;
635;SDS011;302;50.206;8.196;2022-07-04T09:51:39;1.30;;;1.10;;
635;SDS011;302;50.206;8.196;2022-07-04T09:54:12;1.20;;;1.02;;
635;SDS011;302;50.206;8.196;2022-07-04T09:56:47;1.58;;;1.10;;
635;SDS011;302;50.206;8.196;2022-07-04T09:59:13;1.80;;;1.30;;
635;SDS011;302;50.206;8.196;2022-07-04T10:01:38;1.30;;;1.20;;
635;SDS011;302;50.206;8.196;2022-07-04T10:04:06;1.30;;;1.20;;
635;SDS011;302;50.206;8.196;2022-07-04T10:06:32;1.40;;;1.17;;
635;SDS011;302;50.206;8.196;2022-07-04T10:09:07;1.13;;;1.00;;
635;SDS011;302;50.206;8.196;2022-07-04T10:11:33;2.35;;;1.10;;
635;SDS011;302;50.206;8.196;2022-07-04T10:13:59;1.33;;;1.00;;
635;SDS011;302;50.206;8.196;2022-07-04T10:16:24;1.63;;;1.30;;
635;SDS011;302;50.206;8.196;2022-07-04T10:18:49;1.70;;;1.10;;
635;SDS011;302;50.206;8.196;2022-07-04T10:21:15;1.20;;;1.10;;
635;SDS011;302;50.206;8.196;2022-07-04T10:23:40;1.20;;;0.90;;
635;SDS011;302;50.206;8.196;2022-07-04T10:26:05;2.07;;;0.90;;
635;SDS011;302;50.206;8.196;2022-07-04T10:28:31;1.40;;;0.93;;
635;SDS011;302;50.206;8.196;2022-07-04T10:30:57;1.50;;;1.05;;
635;SDS011;302;50.206;8.196;2022-07-04T10:33:26;1.20;;;1.03;;
635;SDS011;302;50.206;8.196;2022-07-04T10:35:56;1.60;;;0.90;;
635;SDS011;302;50.206;8.196;2022-07-04T10:38:25;1.42;;;1.20;;
635;SDS011;302;50.206;8.196;2022-07-04T10:41:04;1.10;;;1.00;;
635;SDS011;302;50.206;8.196;2022-07-04T10:45:55;1.20;;;1.10;;
635;SDS011;302;50.206;8.196;2022-07-04T10:48:21;1.20;;;1.00;;
635;SDS011;302;50.206;8.196;2022-07-04T10:50:58;2.65;;;1.20;;
635;SDS011;302;50.206;8.196;2022-07-04T10:53:23;2.10;;;1.25;;
635;SDS011;302;50.206;8.196;2022-07-04T10:55:49;1.30;;;1.20;;
635;SDS011;302;50.206;8.196;2022-07-04T10:58:27;1.50;;;1.10;;
635;SDS011;302;50.206;8.196;2022-07-04T11:01:15;1.35;;;1.20;;
635;SDS011;302;50.206;8.196;2022-07-04T11:03:47;1.75;;;1.10;;
635;SDS011;302;50.206;8.196;2022-07-04T11:11:47;1.65;;;1.10;;
635;SDS011;302;50.206;8.196;2022-07-04T11:16:56;1.30;;;1.20;;
635;SDS011;302;50.206;8.196;2022-07-04T11:19:21;1.13;;;1.02;;
635;SDS011;302;50.206;8.196;2022-07-04T11:21:47;1.77;;;1.30;;
635;SDS011;302;50.206;8.196;2022-07-04T11:24:12;1.60;;;1.40;;
635;SDS011;302;50.206;8.196;2022-07-04T11:26:37;1.10;;;0.97;;
635;SDS011;302;50.206;8.196;2022-07-04T11:29:02;1.83;;;1.20;;
635;SDS011;302;50.206;8.196;2022-07-04T11:31:34;1.57;;;1.10;;
635;SDS011;302;50.206;8.196;2022-07-04T11:34:00;1.50;;;1.00;;
635;SDS011;302;50.206;8.196;2022-07-04T11:36:25;1.60;;;1.33;;
635;SDS011;302;50.206;8.196;2022-07-04T11:38:52;1.10;;;1.00;;
635;SDS011;302;50.206;8.196;2022-07-04T11:41:18;1.50;;;1.10;;
635;SDS011;302;50.206;8.196;2022-07-04T11:44:06;1.53;;;1.30;;
635;SDS011;302;50.206;8.196;2022-07-04T11:46:50;1.57;;;0.97;;
635;SDS011;302;50.206;8.196;2022-07-04T11:49:15;1.57;;;1.00;;
635;SDS011;302;50.206;8.196;2022-07-04T11:51:41;1.60;;;1.10;;
635;SDS011;302;50.206;8.196;2022-07-04T11:54:07;1.40;;;1.30;;
635;SDS011;302;50.206;8.196;2022-07-04T11:56:32;2.83;;;1.00;;
635;SDS011;302;50.206;8.196;2022-07-04T11:58:57;1.73;;;1.10;;
635;SDS011;302;50.206;8.196;2022-07-04T12:01:33;1.77;;;1.10;;
635;SDS011;302;50.206;8.196;2022-07-04T12:04:10;2.20;;;1.40;;
635;SDS011;302;50.206;8.196;2022-07-04T12:06:35;1.40;;;1.10;;
635;SDS011;302;50.206;8.196;2022-07-04T12:09:00;1.27;;;1.10;;
635;SDS011;302;50.206;8.196;2022-07-04T12:14:13;1.33;;;0.90;;
635;SDS011;302;50.206;8.196;2022-07-04T12:16:38;1.53;;;0.97;;
635;SDS011;302;50.206;8.196;2022-07-04T12:19:09;2.60;;;1.17;;
635;SDS011;302;50.206;8.196;2022-07-04T12:21:35;1.50;;;1.20;;
635;SDS011;302;50.206;8.196;2022-07-04T12:24:00;2.07;;;1.23;;
635;SDS011;302;50.206;8.196;2022-07-04T12:26:28;1.77;;;1.20;;
635;SDS011;302;50.206;8.196;2022-07-04T12:28:54;1.47;;;1.30;;
635;SDS011;302;50.206;8.196;2022-07-04T12:31:19;1.55;;;1.00;;
635;SDS011;302;50.206;8.196;2022-07-04T12:33:54;1.80;;;1.00;;
635;SDS011;302;50.206;8.196;2022-07-04T12:36:20;1.40;;;1.10;;
635;SDS011;302;50.206;8.196;2022-07-04T12:38:45;1.47;;;1.37;;
635;SDS011;302;50.206;8.196;2022-07-04T12:41:12;2.10;;;1.10;;
635;SDS011;302;50.206;8.196;2022-07-04T12:46:08;2.07;;;1.20;;
635;SDS011;302;50.206;8.196;2022-07-04T12:48:34;1.77;;;0.90;;
635;SDS011;302;50.206;8.196;2022-07-04T12:51:17;1.10;;;0.90;;
635;SDS011;302;50.206;8.196;2022-07-04T12:53:43;1.43;;;1.13;;
635;SDS011;302;50.206;8.196;2022-07-04T12:56:08;1.33;;;1.17;;
635;SDS011;302;50.206;8.196;2022-07-04T12:58:34;1.57;;;1.40;;
635;SDS011;302;50.206;8.196;2022-07-04T13:00:59;1.50;;;1.20;;
635;SDS011;302;50.206;8.196;2022-07-04T13:03:24;1.25;;;1.15;;
635;SDS011;302;50.206;8.196;2022-07-04T13:05:50;1.50;;;1.10;;
635;SDS011;302;50.206;8.196;2022-07-04T13:08:15;1.80;;;1.40;;
635;SDS011;302;50.206;8.196;2022-07-04T13:10:40;1.40;;;1.10;;
635;SDS011;302;50.206;8.196;2022-07-04T13:13:06;3.40;;;2.07;;
635;SDS011;302;50.206;8.196;2022-07-04T13:15:31;2.90;;;1.10;;
635;SDS011;302;50.206;8.196;2022-07-04T13:17:56;1.40;;;0.93;;
635;SDS011;302;50.206;8.196;2022-07-04T13:20:22;1.40;;;0.93;;
635;SDS011;302;50.206;8.196;2022-07-04T13:22:47;1.20;;;1.00;;
635;SDS011;302;50.206;8.196;2022-07-04T13:25:12;2.23;;;1.00;;
635;SDS011;302;50.206;8.196;2022-07-04T13:27:37;1.10;;;0.97;;
635;SDS011;302;50.206;8.196;2022-07-04T13:30:03;1.10;;;0.90;;
635;SDS011;302;50.206;8.196;2022-07-04T13:32:28;1.10;;;0.80;;
635;SDS011;302;50.206;8.196;2022-07-04T13:34:53;2.53;;;2.33;;
635;SDS011;302;50.206;8.196;2022-07-04T13:37:18;2.23;;;1.20;;
635;SDS011;302;50.206;8.196;2022-07-04T13:39:44;1.40;;;0.83;;
635;SDS011;302;50.206;8.196;2022-07-04T13:42:09;1.47;;;1.37;;
635;SDS011;302;50.206;8.196;2022-07-04T13:44:34;2.03;;;1.03;;
635;SDS011;302;50.206;8.196;2022-07-04T13:47:00;2.70;;;1.13;;
635;SDS011;302;50.206;8.196;2022-07-04T13:49:25;1.10;;;0.90;;
635;SDS011;302;50.206;8.196;2022-07-04T13:51:50;1.00;;;0.80;;
635;SDS011;302;50.206;8.196;2022-07-04T13:54:16;1.40;;;1.10;;
635;SDS011;302;50.206;8.196;2022-07-04T13:56:41;2.47;;;1.13;;
635;SDS011;302;50.206;8.196;2022-07-04T13:59:07;1.53;;;1.13;;
635;SDS011;302;50.206;8.196;2022-07-04T14:01:32;2.40;;;1.10;;
635;SDS011;302;50.206;8.196;2022-07-04T14:03:58;1.17;;;1.07;;
635;SDS011;302;50.206;8.196;2022-07-04T14:06:24;1.33;;;1.23;;
635;SDS011;302;50.206;8.196;2022-07-04T14:08:49;1.87;;;1.20;;
635;SDS011;302;50.206;8.196;2022-07-04T14:11:14;1.43;;;1.33;;
635;SDS011;302;50.206;8.196;2022-07-04T14:13:39;1.35;;;1.25;;
635;SDS011;302;50.206;8.196;2022-07-04T14:16:05;1.60;;;1.30;;
635;SDS011;302;50.206;8.196;2022-07-04T14:18:31;1.55;;;1.30;;
635;SDS011;302;50.206;8.196;2022-07-04T14:20:56;1.65;;;1.45;;
635;SDS011;302;50.206;8.196;2022-07-04T14:23:21;2.13;;;1.40;;
635;SDS011;302;50.206;8.196;2022-07-04T14:26:05;1.50;;;1.40;;
635;SDS011;302;50.206;8.196;2022-07-04T14:28:31;1.50;;;1.40;;
635;SDS011;302;50.206;8.196;2022-07-04T14:30:56;1.83;;;1.50;;
635;SDS011;302;50.206;8.196;2022-07-04T14:33:21;1.70;;;1.60;;
635;SDS011;302;50.206;8.196;2022-07-04T14:35:47;2.70;;;1.77;;
635;SDS011;302;50.206;8.196;2022-07-04T14:38:12;1.90;;;1.80;;
635;SDS011;302;50.206;8.196;2022-07-04T14:40:37;1.77;;;1.67;;
635;SDS011;302;50.206;8.196;2022-07-04T14:43:04;2.60;;;1.80;;
635;SDS011;302;50.206;8.196;2022-07-04T14:45:29;1.98;;;1.88;;
635;SDS011;302;50.206;8.196;2022-07-04T14:47:55;2.00;;;1.90;;
635;SDS011;302;50.206;8.196;2022-07-04T14:50:20;1.92;;;1.77;;
635;SDS011;302;50.206;8.196;2022-07-04T14:52:45;1.77;;;1.67;;
635;SDS011;302;50.206;8.196;2022-07-04T14:55:10;1.80;;;1.70;;
635;SDS011;302;50.206;8.196;2022-07-04T14:57:35;2.40;;;1.80;;
635;SDS011;302;50.206;8.196;2022-07-04T15:00:01;1.50;;;1.40;;
635;SDS011;302;50.206;8.196;2022-07-04T15:02:26;1.65;;;1.55;;
635;SDS011;302;50.206;8.196;2022-07-04T15:04:51;1.75;;;1.65;;
635;SDS011;302;50.206;8.196;2022-07-04T15:07:17;1.85;;;1.60;;
635;SDS011;302;50.206;8.196;2022-07-04T15:09:42;2.90;;;1.65;;
635;SDS011;302;50.206;8.196;2022-07-04T15:12:07;1.88;;;1.77;;
635;SDS011;302;50.206;8.196;2022-07-04T15:14:33;1.98;;;1.88;;
635;SDS011;302;50.206;8.196;2022-07-04T15:16:58;2.25;;;1.60;;
635;SDS011;302;50.206;8.196;2022-07-04T15:19:24;2.00;;;1.67;;
635;SDS011;302;50.206;8.196;2022-07-04T15:21:49;1.70;;;1.60;;
635;SDS011;302;50.206;8.196;2022-07-04T15:24:33;2.55;;;1.88;;
635;SDS011;302;50.206;8.196;2022-07-04T15:26:58;1.73;;;1.63;;
635;SDS011;302;50.206;8.196;2022-07-04T15:29:24;1.67;;;1.58;;
635;SDS011;302;50.206;8.196;2022-07-04T15:31:50;2.17;;;1.45;;
635;SDS011;302;50.206;8.196;2022-07-04T15:34:16;2.28;;;1.40;;
635;SDS011;302;50.206;8.196;2022-07-04T15:36:41;1.70;;;1.60;;
635;SDS011;302;50.206;8.196;2022-07-04T15:39:07;3.08;;;1.50;;
635;SDS011;302;50.206;8.196;2022-07-04T15:41:35;1.63;;;1.52;;
635;SDS011;302;50.206;8.196;2022-07-04T15:44:01;1.58;;;1.48;;
635;SDS011;302;50.206;8.196;2022-07-04T15:46:26;1.70;;;1.48;;
635;SDS011;302;50.206;8.196;2022-07-04T15:48:51;1.70;;;1.60;;
635;SDS011;302;50.206;8.196;2022-07-04T15:51:17;1.50;;;1.40;;
635;SDS011;302;50.206;8.196;2022-07-04T15:53:42;1.70;;;1.60;;
635;SDS011;302;50.206;8.196;2022-07-04T15:56:07;1.57;;;1.47;;
635;SDS011;302;50.206;8.196;2022-07-04T15:58:32;1.60;;;1.50;;